createdAt,value
2023-01-10T00:00:43.443Z,0.35
2023-01-10T00:03:12.096Z,0.30
2023-01-10T00:05:40.167Z,0.20
2023-01-10T00:08:08.099Z,0.20
2023-01-10T00:10:35.862Z,0.35
2023-01-10T00:13:21.728Z,0.20
2023-01-10T00:15:49.039Z,0.40
2023-01-10T00:18:16.020Z,0.47
2023-01-10T00:20:44.733Z,0.30
2023-01-10T00:23:12.196Z,0.20
2023-01-10T00:25:39.728Z,0.20
2023-01-10T00:28:22.248Z,1.00
2023-01-10T00:31:07.130Z,0.30
2023-01-10T00:33:38.175Z,0.65
2023-01-10T00:36:07.473Z,0.38
2023-01-10T00:38:35.897Z,1.27
2023-01-10T00:41:03.537Z,0.77
2023-01-10T00:43:48.788Z,0.45
2023-01-10T00:46:15.748Z,0.52
2023-01-10T00:48:42.593Z,0.90
2023-01-10T00:51:09.624Z,0.85
2023-01-10T00:53:36.522Z,1.02
2023-01-10T00:56:03.393Z,0.75
2023-01-10T00:58:30.271Z,0.32
2023-01-10T01:00:57.363Z,0.95
2023-01-10T01:03:24.257Z,0.40
2023-01-10T01:05:51.412Z,0.40
2023-01-10T01:08:19.756Z,1.58
2023-01-10T01:10:47.093Z,0.93
2023-01-10T01:13:20.273Z,0.95
2023-01-10T01:15:50.509Z,0.80
2023-01-10T01:18:21.014Z,0.90
2023-01-10T01:20:48.547Z,0.40
2023-01-10T01:23:15.793Z,1.40
2023-01-10T01:25:42.753Z,1.45
2023-01-10T01:28:13.975Z,0.63
2023-01-10T01:30:40.973Z,0.57
2023-01-10T01:33:08.325Z,0.80
2023-01-10T01:35:35.377Z,0.63
2023-01-10T01:38:02.534Z,2.33
2023-01-10T01:40:29.411Z,0.60
2023-01-10T01:42:56.444Z,0.52
2023-01-10T01:45:23.372Z,4.47
2023-01-10T01:48:03.830Z,1.08
2023-01-10T01:50:51.973Z,1.05
2023-01-10T01:53:31.420Z,2.03
2023-01-10T01:56:03.596Z,1.30
2023-01-10T01:58:56.875Z,2.63
2023-01-10T02:01:24.216Z,1.23
2023-01-10T02:03:58.292Z,1.00
2023-01-10T02:06:25.672Z,1.55
2023-01-10T03:45:13.781Z,3.70
2023-01-10T03:47:48.649Z,4.88
2023-01-10T03:50:20.060Z,4.05
2023-01-10T03:52:47.464Z,4.03
2023-01-10T03:55:18.315Z,3.25
2023-01-10T03:57:45.747Z,3.63
2023-01-10T04:00:13.920Z,9.15
2023-01-10T04:02:40.818Z,6.05
2023-01-10T04:05:08.065Z,2.58
2023-01-10T04:07:35.015Z,4.50
2023-01-10T04:10:01.824Z,2.65
2023-01-10T04:12:28.609Z,5.38
2023-01-10T04:14:55.432Z,7.30
2023-01-10T04:17:22.257Z,3.78
2023-01-10T04:19:49.207Z,2.80
2023-01-10T04:22:16.158Z,3.22
2023-01-10T04:24:44.350Z,3.83
2023-01-10T04:27:11.265Z,3.15
2023-01-10T04:29:38.101Z,4.68
2023-01-10T04:32:05.144Z,2.90
2023-01-10T04:34:31.991Z,2.83
2023-01-10T04:36:58.840Z,2.90
2023-01-10T04:39:25.702Z,4.93
2023-01-10T04:41:52.665Z,4.88
2023-01-10T04:44:19.478Z,4.65
2023-01-10T04:46:46.337Z,2.53
2023-01-10T04:49:16.531Z,2.25
2023-01-10T04:51:43.441Z,3.58
2023-01-10T04:54:10.211Z,2.15
2023-01-10T04:56:37.057Z,3.10
2023-01-10T04:59:06.524Z,4.47
2023-01-10T05:01:35.516Z,2.10
2023-01-10T05:04:03.453Z,5.10
2023-01-10T05:06:30.352Z,3.53
2023-01-10T05:08:57.413Z,3.30
2023-01-10T05:11:24.656Z,2.67
2023-01-10T05:13:51.495Z,2.42
2023-01-10T05:16:18.456Z,2.95
2023-01-10T05:18:45.331Z,3.17
2023-01-10T05:21:14.571Z,3.08
2023-01-10T05:23:41.507Z,4.65
2023-01-10T05:26:16.527Z,2.50
2023-01-10T05:28:44.192Z,1.63
2023-01-10T05:31:14.551Z,4.32
2023-01-10T05:33:48.015Z,2.63
2023-01-10T05:36:15.091Z,4.80
2023-01-10T05:38:41.936Z,3.95
2023-01-10T05:41:08.882Z,4.75
2023-01-10T05:43:35.889Z,4.93
2023-01-10T05:46:02.898Z,4.75
2023-01-10T05:48:29.805Z,2.88
2023-01-10T05:50:57.865Z,4.82
2023-01-10T05:53:24.899Z,4.25
2023-01-10T05:55:56.923Z,4.30
2023-01-10T05:58:24.739Z,5.68
2023-01-10T06:00:51.650Z,4.22
2023-01-10T06:03:18.740Z,2.35
2023-01-10T06:05:47.782Z,5.55
2023-01-10T06:08:15.507Z,4.03
2023-01-10T06:10:43.231Z,1.13
2023-01-10T06:13:10.378Z,4.82
2023-01-10T06:15:37.781Z,4.82
2023-01-10T06:18:04.903Z,2.38
2023-01-10T06:20:31.772Z,6.45
2023-01-10T06:23:04.910Z,3.75
2023-01-10T06:25:34.035Z,5.38
2023-01-10T06:28:01.812Z,3.53
2023-01-10T06:30:28.842Z,4.35
2023-01-10T06:33:04.316Z,3.60
2023-01-10T06:35:31.547Z,3.67
2023-01-10T06:37:58.922Z,3.35
2023-01-10T06:40:26.589Z,5.25
2023-01-10T06:42:53.683Z,3.63
2023-01-10T06:45:21.252Z,4.07
2023-01-10T06:47:48.191Z,3.17
2023-01-10T06:50:15.032Z,3.78
2023-01-10T06:52:42.282Z,5.35
2023-01-10T06:55:09.440Z,6.85
2023-01-10T06:57:38.357Z,5.75
2023-01-10T07:00:06.976Z,10.55
2023-01-10T07:02:33.933Z,6.43
2023-01-10T07:05:00.728Z,8.43
2023-01-10T07:07:27.541Z,7.20
2023-01-10T07:09:54.366Z,5.05
2023-01-10T07:12:21.282Z,5.90
2023-01-10T07:14:48.140Z,4.78
2023-01-10T07:17:15.051Z,7.28
2023-01-10T07:19:41.947Z,6.53
2023-01-10T07:22:08.762Z,3.90
2023-01-10T07:24:35.554Z,4.07
2023-01-10T07:27:02.394Z,6.45
2023-01-10T07:29:29.151Z,5.40
2023-01-10T07:31:55.964Z,6.57
2023-01-10T07:34:22.739Z,4.72
2023-01-10T07:36:49.539Z,8.07
2023-01-10T07:39:16.442Z,7.25
2023-01-10T07:41:43.413Z,4.68
2023-01-10T07:44:10.217Z,3.95
2023-01-10T07:46:37.137Z,6.22
2023-01-10T07:49:03.996Z,6.40
2023-01-10T07:51:30.852Z,4.15
2023-01-10T07:53:57.775Z,9.13
2023-01-10T07:56:25.373Z,8.63
2023-01-10T07:58:52.232Z,4.07
2023-01-10T08:01:19.115Z,5.32
2023-01-10T08:03:46.352Z,4.93
2023-01-10T08:06:15.319Z,3.50
2023-01-10T08:08:43.394Z,2.97
2023-01-10T08:11:10.135Z,3.50
2023-01-10T08:13:36.990Z,3.20
2023-01-10T08:16:08.468Z,2.20
2023-01-10T08:18:35.955Z,5.15
2023-01-10T08:21:03.135Z,2.38
2023-01-10T08:23:30.296Z,3.78
2023-01-10T08:25:59.586Z,3.25
2023-01-10T08:28:26.970Z,4.70
2023-01-10T08:30:55.793Z,4.35
2023-01-10T08:33:24.213Z,4.93
2023-01-10T08:35:51.536Z,4.32
2023-01-10T08:38:18.513Z,3.67
2023-01-10T08:40:45.516Z,4.93
2023-01-10T08:43:13.550Z,7.53
2023-01-10T08:45:40.695Z,5.82
2023-01-10T08:48:09.518Z,5.38
2023-01-10T08:50:36.882Z,4.70
2023-01-10T08:53:04.255Z,5.25
2023-01-10T08:55:31.506Z,6.75
2023-01-10T08:58:02.656Z,6.20
2023-01-10T09:00:30.360Z,2.58
2023-01-10T09:02:57.511Z,3.63
2023-01-10T09:05:28.388Z,1.63
2023-01-10T09:08:00.521Z,1.92
2023-01-10T09:10:29.040Z,5.70
2023-01-10T09:12:59.727Z,3.90
2023-01-10T09:15:29.667Z,7.55
2023-01-10T09:17:58.591Z,5.57
2023-01-10T09:20:26.722Z,5.45
2023-01-10T09:22:53.987Z,4.72
2023-01-10T09:25:21.173Z,5.40
2023-01-10T09:27:47.999Z,5.93
2023-01-10T09:30:15.248Z,5.45
2023-01-10T09:32:42.214Z,8.93
2023-01-10T09:35:09.166Z,6.65
2023-01-10T09:37:37.987Z,4.50
2023-01-10T09:40:06.583Z,9.73
2023-01-10T09:43:02.697Z,3.95
2023-01-10T09:45:50.237Z,8.90
2023-01-10T09:48:30.245Z,8.90
2023-01-10T09:51:10.632Z,6.65
2023-01-10T09:53:42.529Z,6.22
2023-01-10T09:56:09.974Z,6.63
2023-01-10T09:58:38.632Z,5.32
2023-01-10T10:01:10.875Z,6.93
2023-01-10T10:04:05.204Z,8.23
2023-01-10T10:06:34.548Z,5.32
2023-01-10T10:09:04.792Z,13.77
2023-01-10T10:11:42.522Z,10.93
2023-01-10T10:14:29.995Z,7.07
2023-01-10T10:17:06.307Z,5.38
2023-01-10T10:20:10.721Z,4.53
2023-01-10T10:23:02.683Z,7.05
2023-01-10T10:25:51.808Z,8.35
2023-01-10T10:28:31.910Z,9.05
2023-01-10T10:31:27.929Z,8.07
2023-01-10T10:34:00.572Z,4.70
2023-01-10T10:36:51.977Z,5.10
2023-01-10T10:39:32.125Z,7.22
2023-01-10T10:42:00.333Z,7.15
2023-01-10T10:44:36.115Z,8.93
2023-01-10T10:47:03.343Z,11.05
2023-01-10T10:49:39.112Z,7.93
2023-01-10T10:52:19.760Z,7.85
2023-01-10T10:54:49.948Z,6.75
2023-01-10T10:57:17.635Z,7.90
2023-01-10T10:59:48.469Z,3.03
2023-01-10T11:02:32.926Z,6.40
2023-01-10T11:05:06.844Z,7.25
2023-01-10T11:07:36.866Z,10.35
2023-01-10T11:10:32.408Z,9.60
2023-01-10T11:13:06.097Z,5.43
2023-01-10T11:15:44.732Z,5.20
2023-01-10T11:18:23.112Z,4.85
2023-01-10T11:20:58.179Z,5.03
2023-01-10T11:23:43.271Z,7.90
2023-01-10T11:26:35.888Z,9.48
2023-01-10T11:29:15.316Z,8.45
2023-01-10T11:31:42.832Z,5.35
2023-01-10T11:34:22.579Z,4.10
2023-01-10T11:36:53.417Z,7.75
2023-01-10T11:39:20.549Z,8.75
2023-01-10T11:41:49.310Z,8.52
2023-01-10T11:44:28.446Z,7.03
2023-01-10T11:47:01.855Z,5.60
2023-01-10T11:49:39.203Z,6.05
2023-01-10T11:52:29.776Z,9.05
2023-01-10T11:55:00.414Z,9.77
2023-01-10T11:57:30.830Z,7.60
2023-01-10T12:00:04.861Z,6.13
2023-01-10T12:02:42.781Z,6.57
2023-01-10T12:05:18.359Z,9.38
2023-01-10T12:08:06.538Z,9.45
2023-01-10T12:10:34.743Z,7.70
2023-01-10T12:13:15.159Z,5.35
2023-01-10T12:15:42.123Z,5.43
2023-01-10T12:18:12.209Z,6.10
2023-01-10T12:20:51.254Z,11.80
2023-01-10T12:23:21.779Z,3.22
2023-01-10T12:25:50.069Z,3.47
2023-01-10T12:28:21.616Z,6.25
2023-01-10T12:30:53.341Z,11.57
2023-01-10T12:33:24.870Z,7.55
2023-01-10T12:36:12.923Z,5.35
2023-01-10T12:39:04.142Z,7.45
2023-01-10T12:42:02.008Z,8.35
2023-01-10T12:44:44.263Z,5.53
2023-01-10T12:47:35.061Z,5.38
2023-01-10T12:50:19.752Z,5.22
2023-01-10T12:52:53.839Z,11.63
2023-01-10T12:55:23.535Z,5.05
2023-01-10T12:58:00.235Z,7.57
2023-01-10T13:00:47.173Z,3.88
2023-01-10T13:03:20.154Z,3.15
2023-01-10T13:05:49.743Z,4.40
2023-01-10T13:08:21.052Z,4.85
2023-01-10T13:10:51.475Z,8.40
2023-01-10T13:13:26.931Z,6.40
2023-01-10T13:16:28.654Z,6.38
2023-01-10T13:19:26.323Z,4.28
2023-01-10T13:22:19.473Z,7.95
2023-01-10T13:25:02.781Z,6.07
2023-01-10T13:27:35.718Z,5.55
2023-01-10T13:30:04.875Z,5.20
2023-01-10T13:32:35.056Z,5.03
2023-01-10T13:35:17.259Z,6.30
2023-01-10T13:37:51.317Z,5.50
2023-01-10T13:40:30.860Z,5.90
2023-01-10T13:43:34.657Z,6.35
2023-01-10T13:46:17.154Z,7.05
2023-01-10T13:48:50.334Z,6.53
2023-01-10T13:51:22.007Z,7.57
2023-01-10T13:53:57.503Z,3.85
2023-01-10T13:56:31.812Z,3.20
2023-01-10T13:59:17.686Z,7.10
2023-01-10T14:02:09.512Z,3.55
2023-01-10T14:04:55.368Z,5.85
2023-01-10T14:07:30.654Z,7.18
2023-01-10T14:10:09.438Z,2.63
2023-01-10T14:12:49.454Z,4.50
2023-01-10T14:15:25.925Z,4.13
2023-01-10T14:18:33.092Z,2.47
2023-01-10T14:21:06.026Z,9.25
2023-01-10T14:23:44.353Z,7.97
2023-01-10T14:26:39.025Z,5.68
2023-01-10T14:29:14.471Z,9.52
2023-01-10T14:31:49.890Z,2.22
2023-01-10T14:34:25.707Z,8.10
2023-01-10T14:37:03.398Z,4.28
2023-01-10T14:39:31.081Z,2.97
2023-01-10T14:42:05.850Z,5.50
2023-01-10T14:44:48.733Z,6.18
2023-01-10T14:47:34.321Z,4.65
2023-01-10T14:50:02.320Z,5.60
2023-01-10T14:52:30.446Z,4.30
2023-01-10T14:55:11.289Z,5.80
2023-01-10T14:57:38.537Z,5.80
2023-01-10T15:00:17.625Z,3.67
2023-01-10T15:02:49.132Z,5.32
2023-01-10T15:05:23.660Z,4.57
2023-01-10T15:07:50.646Z,4.85
2023-01-10T15:10:34.042Z,1.77
2023-01-10T15:13:03.482Z,6.68
2023-01-10T15:15:36.163Z,5.03
2023-01-10T15:18:21.977Z,4.68
2023-01-10T15:20:49.140Z,4.40
2023-01-10T15:23:16.047Z,10.45
2023-01-10T15:25:44.183Z,4.50
2023-01-10T15:28:19.767Z,3.55
2023-01-10T15:30:47.033Z,3.08
2023-01-10T15:33:18.261Z,3.05
2023-01-10T15:35:45.669Z,3.17
2023-01-10T15:38:15.946Z,3.92
2023-01-10T15:40:43.814Z,4.03
2023-01-10T15:43:21.236Z,4.80
2023-01-10T15:45:50.067Z,3.78
2023-01-10T15:48:55.346Z,8.38
2023-01-10T15:51:34.815Z,5.82
2023-01-10T15:54:24.961Z,3.83
2023-01-10T15:56:56.405Z,6.28
2023-01-10T15:59:33.965Z,4.78
2023-01-10T16:02:18.094Z,2.55
2023-01-10T16:04:46.367Z,4.50
2023-01-10T16:07:34.857Z,3.88
2023-01-10T16:10:07.938Z,3.05
2023-01-10T16:12:54.569Z,3.08
2023-01-10T16:15:24.018Z,3.88
2023-01-10T16:17:52.352Z,6.55
2023-01-10T16:20:22.473Z,5.25
2023-01-10T16:22:50.293Z,3.08
2023-01-10T16:25:20.874Z,3.10
2023-01-10T16:27:47.837Z,5.40
2023-01-10T16:30:23.385Z,6.28
2023-01-10T16:32:50.824Z,4.93
2023-01-10T16:35:19.573Z,5.57
2023-01-10T16:37:47.853Z,4.55
2023-01-10T16:40:52.602Z,4.13
2023-01-10T16:43:21.652Z,3.47
2023-01-10T16:45:51.493Z,6.68
2023-01-10T16:48:20.053Z,4.28
2023-01-10T16:50:48.284Z,3.28
2023-01-10T16:53:17.861Z,10.02
2023-01-10T16:55:47.685Z,4.45
2023-01-10T16:58:18.512Z,5.47
2023-01-10T17:00:52.462Z,7.07
2023-01-10T17:03:22.951Z,5.95
2023-01-10T17:05:50.524Z,5.30
2023-01-10T17:08:20.761Z,4.13
2023-01-10T17:10:50.902Z,3.15
2023-01-10T17:13:24.527Z,5.57
2023-01-10T17:15:51.581Z,5.75
2023-01-10T17:18:18.663Z,6.95
2023-01-10T17:20:45.508Z,3.35
2023-01-10T17:23:15.041Z,4.75
2023-01-10T17:25:42.115Z,6.90
2023-01-10T17:28:12.177Z,3.05
2023-01-10T17:30:44.729Z,3.72
2023-01-10T17:33:12.297Z,2.60
2023-01-10T17:35:40.847Z,2.53
2023-01-10T17:38:10.693Z,8.02
2023-01-10T17:40:41.760Z,6.55
2023-01-10T17:43:09.196Z,1.77
2023-01-10T17:45:40.208Z,3.80
2023-01-10T17:48:07.777Z,3.88
2023-01-10T17:50:35.764Z,6.57
2023-01-10T17:53:02.811Z,4.97
2023-01-10T17:55:29.712Z,4.47
2023-01-10T17:57:57.091Z,3.63
2023-01-10T18:00:24.181Z,5.75
2023-01-10T18:02:51.191Z,6.47
2023-01-10T18:05:18.184Z,3.97
2023-01-10T18:07:45.135Z,6.30
2023-01-10T18:10:13.393Z,4.90
2023-01-10T18:12:40.377Z,5.35
2023-01-10T18:15:07.886Z,5.05
2023-01-10T18:17:34.900Z,7.75
2023-01-10T18:20:02.071Z,2.88
2023-01-10T18:22:47.408Z,3.67
2023-01-10T18:25:15.923Z,8.75
2023-01-10T18:27:43.600Z,2.85
2023-01-10T18:30:10.945Z,4.40
2023-01-10T18:32:37.744Z,7.25
2023-01-10T18:35:04.863Z,5.30
2023-01-10T18:37:34.495Z,6.32
2023-01-10T18:40:01.982Z,2.92
2023-01-10T18:42:28.935Z,4.60
2023-01-10T18:44:56.087Z,3.55
2023-01-10T18:47:23.105Z,7.95
2023-01-10T18:49:52.944Z,2.42
2023-01-10T18:52:21.105Z,3.38
2023-01-10T18:54:48.341Z,2.80
2023-01-10T18:57:15.080Z,4.07
2023-01-10T18:59:41.903Z,6.45
2023-01-10T19:02:14.744Z,5.65
2023-01-10T19:04:41.680Z,3.97
2023-01-10T19:07:09.071Z,7.90
2023-01-10T19:09:35.869Z,2.85
2023-01-10T19:12:02.694Z,5.55
2023-01-10T19:14:29.506Z,2.67
2023-01-10T19:16:56.331Z,4.05
2023-01-10T19:19:23.633Z,4.10
2023-01-10T19:21:50.468Z,3.97
2023-01-10T19:24:22.493Z,5.10
2023-01-10T19:26:49.677Z,3.00
2023-01-10T19:29:16.649Z,8.18
2023-01-10T19:31:43.681Z,7.60
2023-01-10T19:34:12.365Z,3.78
2023-01-10T19:36:41.388Z,3.90
2023-01-10T19:39:09.464Z,2.55
2023-01-10T19:41:37.718Z,4.18
2023-01-10T19:44:10.727Z,2.95
2023-01-10T19:46:39.055Z,3.55
2023-01-10T19:49:10.856Z,2.92
2023-01-10T19:51:39.805Z,1.75
2023-01-10T19:54:08.467Z,1.63
2023-01-10T19:56:36.017Z,2.72
2023-01-10T19:59:03.277Z,1.70
2023-01-10T20:01:31.522Z,3.05
2023-01-10T20:04:05.883Z,4.35
2023-01-10T20:06:36.581Z,1.60
2023-01-10T20:09:03.823Z,2.15
2023-01-10T20:11:37.411Z,3.65
2023-01-10T20:14:11.280Z,1.48
2023-01-10T20:16:38.207Z,3.33
2023-01-10T20:19:09.198Z,3.90
2023-01-10T20:21:37.375Z,2.05
2023-01-10T20:24:12.224Z,1.83
2023-01-10T20:26:39.480Z,3.60
2023-01-10T20:29:06.807Z,3.17
2023-01-10T20:31:34.023Z,2.55
2023-01-10T20:34:03.384Z,3.80
2023-01-10T20:36:30.528Z,2.30
2023-01-10T20:38:58.016Z,1.50
2023-01-10T20:41:27.926Z,2.60
2023-01-10T20:43:56.369Z,2.35
2023-01-10T20:46:26.635Z,1.58
2023-01-10T20:48:55.888Z,3.45
2023-01-10T20:51:29.270Z,4.03
2023-01-10T20:53:56.422Z,3.15
2023-01-10T20:56:25.966Z,1.25
2023-01-10T20:58:53.413Z,2.67
2023-01-10T21:01:33.117Z,3.05
2023-01-10T21:04:06.831Z,1.63
2023-01-10T21:06:35.217Z,1.20
2023-01-10T21:09:03.250Z,2.70
2023-01-10T21:11:30.229Z,2.80
2023-01-10T21:14:00.088Z,1.42
2023-01-10T21:16:26.967Z,0.82
2023-01-10T21:18:53.831Z,1.10
2023-01-10T21:21:22.679Z,1.80
2023-01-10T21:23:50.215Z,2.22
2023-01-10T21:26:17.375Z,1.90
2023-01-10T21:28:47.359Z,1.92
2023-01-10T21:31:19.284Z,2.13
2023-01-10T21:33:46.423Z,1.38
2023-01-10T21:36:13.884Z,2.55
2023-01-10T21:38:41.545Z,1.42
2023-01-10T21:41:37.563Z,0.50
2023-01-10T21:44:08.503Z,0.80
2023-01-10T21:46:36.004Z,0.65
2023-01-10T21:49:03.823Z,0.90
2023-01-10T21:51:30.647Z,1.20
2023-01-10T21:53:57.878Z,0.73
2023-01-10T21:56:24.782Z,1.33
2023-01-10T21:58:52.346Z,0.50
2023-01-10T22:01:19.276Z,0.70
2023-01-10T22:03:46.483Z,1.08
2023-01-10T22:06:13.881Z,1.80
2023-01-10T22:08:42.243Z,1.25
2023-01-10T22:11:10.791Z,1.50
2023-01-10T22:13:38.663Z,1.42
2023-01-10T22:16:06.941Z,0.68
2023-01-10T22:18:33.972Z,0.82
2023-01-10T22:21:00.951Z,0.93
2023-01-10T22:23:29.846Z,0.88
2023-01-10T22:26:01.885Z,2.05
2023-01-10T22:28:29.262Z,0.55
2023-01-10T22:30:56.300Z,0.40
2023-01-10T22:33:24.037Z,0.30
2023-01-10T22:35:50.863Z,1.00
2023-01-10T22:38:17.771Z,1.98
2023-01-10T22:40:44.838Z,0.77
2023-01-10T22:43:12.137Z,0.30
2023-01-10T22:45:43.126Z,0.60
2023-01-10T22:48:10.596Z,0.85
2023-01-10T22:50:37.716Z,0.63
2023-01-10T22:53:04.572Z,1.42
2023-01-10T22:55:33.716Z,1.02
2023-01-10T22:58:00.553Z,1.60
2023-01-10T23:00:27.726Z,1.38
2023-01-10T23:02:54.524Z,0.40
2023-01-10T23:05:21.431Z,1.00
2023-01-10T23:07:50.035Z,0.68
2023-01-10T23:10:29.340Z,1.23
2023-01-10T23:12:58.198Z,0.52
2023-01-10T23:15:25.474Z,0.93
2023-01-10T23:17:52.374Z,0.50
2023-01-10T23:20:19.349Z,0.93
2023-01-10T23:22:46.345Z,1.23
2023-01-10T23:25:13.231Z,1.30
2023-01-10T23:27:40.345Z,0.57
2023-01-10T23:30:09.365Z,0.47
2023-01-10T23:32:36.426Z,1.17
2023-01-10T23:35:03.639Z,0.77
2023-01-10T23:37:30.502Z,0.43
2023-01-10T23:39:57.425Z,0.63
2023-01-10T23:42:24.361Z,0.38
2023-01-10T23:44:51.315Z,0.82
2023-01-10T23:47:18.275Z,0.90
2023-01-10T23:49:45.125Z,0.43
2023-01-10T23:52:12.265Z,1.02
2023-01-10T23:54:39.591Z,1.83
2023-01-10T23:57:06.387Z,1.83
2023-01-10T23:59:33.256Z,1.00
